This is the latest recevied weather packets stored in our database for station/object SP6RGZ-1. If no packets are shown the sender has not sent any weather packets the latest 10 day(s).
| Time | Temp. | Humidity | Pressure | Rain* | Wind** | Luminosity | Snow |
|---|---|---|---|---|---|---|---|
| 1787599802 | 17.22° C | 78% | 1002.4 hPa | - | - | - | - |
| 1787598902 | 17.22° C | 75% | 1002.4 hPa | - | - | - | - |
| 1787598002 | 17.22° C | 74% | 1002.4 hPa | - | - | - | - |
| 1787597102 | 17.78° C | 72% | 1002.5 hPa | - | - | - | - |
| 1787596202 | 18.33° C | 70% | 1002.4 hPa | - | - | - | - |
| 1787595302 | 18.89° C | 69% | 1002.4 hPa | - | - | - | - |
| 1787594402 | 18.89° C | 67% | 1002.4 hPa | - | - | - | - |
| 1787593502 | 19.44° C | 64% | 1002.3 hPa | - | - | - | - |
| 1787592602 | 20° C | 63% | 1002.3 hPa | - | - | - | - |
| 1787591702 | 20.56° C | 61% | 1002.2 hPa | - | - | - | - |
| 1787590802 | 20.56° C | 59% | 1002.3 hPa | - | - | - | - |
| 1787589902 | 21.11° C | 58% | 1002.2 hPa | - | - | - | - |
| 1787589002 | 21.11° C | 59% | 1002.3 hPa | - | - | - | - |
| 1787588102 | 21.11° C | 61% | 1002.4 hPa | - | - | - | - |
| 1787587202 | 21.11° C | 60% | 1002.5 hPa | - | - | - | - |
| 1787586303 | 21.67° C | 55% | 1002.5 hPa | - | - | - | - |
| 1787585402 | 21.67° C | 53% | 1002.7 hPa | - | - | - | - |
| 1787584502 | 22.22° C | 52% | 1002.6 hPa | - | - | - | - |
| 1787583602 | 22.22° C | 54% | 1002.7 hPa | - | - | - | - |
| 1787582702 | 22.22° C | 54% | 1002.9 hPa | - | - | - | - |
| 1787581802 | 21.67° C | 53% | 1002.9 hPa | - | - | - | - |
| 1787580902 | 21.67° C | 55% | 1002.9 hPa | - | - | - | - |
| 1787580002 | 21.11° C | 56% | 1002.9 hPa | - | - | - | - |
| 1787579102 | 22.22° C | 53% | 1002.8 hPa | - | - | - | - |
| 1787578202 | 22.22° C | 53% | 1003 hPa | - | - | - | - |
* Rain since midnight (hover to see other rain measurements)
** Current wind speed in m/s (hover to see current wind gust speed)